sensor_id;sensor_type;location;lat;lon;timestamp;pressure;altitude;pressure_sealevel;temperature;humidity
74090;BME280;62448;-26.094;27.994;2022-08-19T00:00:48;84393.41;;;12.07;11.18
74090;BME280;62448;-26.094;27.994;2022-08-19T00:03:14;84391.55;;;11.91;11.30
74090;BME280;62448;-26.094;27.994;2022-08-19T00:05:39;84391.18;;;11.32;11.40
74090;BME280;62448;-26.094;27.994;2022-08-19T00:08:05;84394.65;;;11.60;11.40
74090;BME280;62448;-26.094;27.994;2022-08-19T00:10:30;84392.63;;;11.99;11.18
74090;BME280;62448;-26.094;27.994;2022-08-19T00:12:56;84395.37;;;11.61;11.37
74090;BME280;62448;-26.094;27.994;2022-08-19T00:15:23;84396.74;;;11.35;11.30
74090;BME280;62448;-26.094;27.994;2022-08-19T00:17:47;84398.55;;;11.67;11.31
74090;BME280;62448;-26.094;27.994;2022-08-19T00:20:15;84397.98;;;11.41;11.46
74090;BME280;62448;-26.094;27.994;2022-08-19T00:22:38;84404.42;;;11.93;11.27
74090;BME280;62448;-26.094;27.994;2022-08-19T00:25:04;84404.56;;;11.96;11.22
74090;BME280;62448;-26.094;27.994;2022-08-19T00:27:29;84407.72;;;11.71;11.33
74090;BME280;62448;-26.094;27.994;2022-08-19T00:29:54;84413.50;;;12.04;11.22
74090;BME280;62448;-26.094;27.994;2022-08-19T00:32:19;84415.33;;;12.03;11.26
74090;BME280;62448;-26.094;27.994;2022-08-19T00:34:44;84415.13;;;11.76;11.33
74090;BME280;62448;-26.094;27.994;2022-08-19T00:37:10;84415.86;;;11.53;11.32
74090;BME280;62448;-26.094;27.994;2022-08-19T00:39:36;84414.89;;;11.76;11.22
74090;BME280;62448;-26.094;27.994;2022-08-19T00:42:01;84413.19;;;11.53;11.24
74090;BME280;62448;-26.094;27.994;2022-08-19T00:44:28;84420.34;;;11.06;11.06
74090;BME280;62448;-26.094;27.994;2022-08-19T00:46:53;84411.69;;;11.83;10.87
74090;BME280;62448;-26.094;27.994;2022-08-19T00:49:20;84405.64;;;12.24;10.72
74090;BME280;62448;-26.094;27.994;2022-08-19T00:51:45;84401.87;;;11.53;10.90
74090;BME280;62448;-26.094;27.994;2022-08-19T00:54:09;84414.58;;;11.94;10.95
74090;BME280;62448;-26.094;27.994;2022-08-19T00:56:34;84412.34;;;11.88;11.06
74090;BME280;62448;-26.094;27.994;2022-08-19T00:59:00;84425.03;;;11.84;11.12
74090;BME280;62448;-26.094;27.994;2022-08-19T01:01:25;84423.88;;;11.56;11.18
74090;BME280;62448;-26.094;27.994;2022-08-19T01:03:50;84421.65;;;11.23;11.30
74090;BME280;62448;-26.094;27.994;2022-08-19T01:06:16;84413.91;;;11.03;11.29
74090;BME280;62448;-26.094;27.994;2022-08-19T01:08:41;84399.20;;;11.38;11.29
74090;BME280;62448;-26.094;27.994;2022-08-19T01:11:07;84401.86;;;11.62;11.22
74090;BME280;62448;-26.094;27.994;2022-08-19T01:13:33;84396.18;;;11.55;11.27
74090;BME280;62448;-26.094;27.994;2022-08-19T01:16:01;84394.62;;;11.36;11.30
74090;BME280;62448;-26.094;27.994;2022-08-19T01:18:24;84387.47;;;11.27;11.41
74090;BME280;62448;-26.094;27.994;2022-08-19T01:20:48;84391.05;;;11.47;11.24
74090;BME280;62448;-26.094;27.994;2022-08-19T01:23:15;84391.37;;;11.47;11.28
74090;BME280;62448;-26.094;27.994;2022-08-19T01:25:43;84396.42;;;11.42;11.35
74090;BME280;62448;-26.094;27.994;2022-08-19T01:28:05;84404.37;;;11.47;11.33
74090;BME280;62448;-26.094;27.994;2022-08-19T01:30:33;84406.93;;;11.52;11.20
74090;BME280;62448;-26.094;27.994;2022-08-19T01:32:56;84406.57;;;11.10;11.45
74090;BME280;62448;-26.094;27.994;2022-08-19T01:35:21;84408.70;;;11.19;11.46
74090;BME280;62448;-26.094;27.994;2022-08-19T01:37:49;84395.74;;;11.43;11.30
74090;BME280;62448;-26.094;27.994;2022-08-19T01:40:12;84391.79;;;11.74;11.26
74090;BME280;62448;-26.094;27.994;2022-08-19T01:42:36;84385.79;;;11.77;11.24
74090;BME280;62448;-26.094;27.994;2022-08-19T01:45:02;84397.17;;;11.30;11.15
74090;BME280;62448;-26.094;27.994;2022-08-19T01:47:28;84397.75;;;11.96;10.85
74090;BME280;62448;-26.094;27.994;2022-08-19T01:49:53;84401.86;;;12.32;10.71
74090;BME280;62448;-26.094;27.994;2022-08-19T01:52:19;84405.47;;;12.25;10.63
74090;BME280;62448;-26.094;27.994;2022-08-19T01:54:43;84412.06;;;12.05;10.67
74090;BME280;62448;-26.094;27.994;2022-08-19T01:57:10;84406.69;;;12.46;10.57
74090;BME280;62448;-26.094;27.994;2022-08-19T01:59:34;84404.90;;;12.14;10.62
74090;BME280;62448;-26.094;27.994;2022-08-19T02:01:59;84409.85;;;12.03;10.64
74090;BME280;62448;-26.094;27.994;2022-08-19T02:04:25;84408.13;;;11.85;10.69
74090;BME280;62448;-26.094;27.994;2022-08-19T02:06:50;84409.76;;;12.09;10.66
74090;BME280;62448;-26.094;27.994;2022-08-19T02:09:16;84415.25;;;11.84;10.63
74090;BME280;62448;-26.094;27.994;2022-08-19T02:11:42;84417.16;;;11.86;10.66
74090;BME280;62448;-26.094;27.994;2022-08-19T02:14:07;84421.30;;;12.17;10.59
74090;BME280;62448;-26.094;27.994;2022-08-19T02:16:31;84431.37;;;12.30;10.63
74090;BME280;62448;-26.094;27.994;2022-08-19T02:18:56;84437.32;;;12.13;10.62
74090;BME280;62448;-26.094;27.994;2022-08-19T02:21:23;84430.39;;;12.15;10.57
74090;BME280;62448;-26.094;27.994;2022-08-19T02:23:47;84428.61;;;12.18;10.72
74090;BME280;62448;-26.094;27.994;2022-08-19T02:26:13;84433.53;;;12.11;10.75
74090;BME280;62448;-26.094;27.994;2022-08-19T02:28:39;84433.34;;;12.21;10.58
74090;BME280;62448;-26.094;27.994;2022-08-19T02:31:08;84431.39;;;11.47;10.72
74090;BME280;62448;-26.094;27.994;2022-08-19T02:33:29;84423.23;;;12.43;10.60
74090;BME280;62448;-26.094;27.994;2022-08-19T02:35:54;84420.48;;;11.87;10.72
74090;BME280;62448;-26.094;27.994;2022-08-19T02:38:20;84427.09;;;11.61;10.72
74090;BME280;62448;-26.094;27.994;2022-08-19T02:40:49;84424.42;;;11.88;10.70
74090;BME280;62448;-26.094;27.994;2022-08-19T02:43:27;84423.10;;;12.97;10.90
74090;BME280;62448;-26.094;27.994;2022-08-19T02:45:51;84428.30;;;11.64;10.89
74090;BME280;62448;-26.094;27.994;2022-08-19T02:48:16;84431.16;;;11.85;10.73
74090;BME280;62448;-26.094;27.994;2022-08-19T02:50:41;84427.51;;;11.87;10.87
74090;BME280;62448;-26.094;27.994;2022-08-19T02:53:07;84433.41;;;12.04;10.61
74090;BME280;62448;-26.094;27.994;2022-08-19T02:55:32;84440.19;;;12.00;10.70
74090;BME280;62448;-26.094;27.994;2022-08-19T02:57:58;84438.76;;;11.44;10.79
74090;BME280;62448;-26.094;27.994;2022-08-19T03:00:23;84440.58;;;12.16;10.65
74090;BME280;62448;-26.094;27.994;2022-08-19T03:02:48;84446.60;;;12.18;10.64
74090;BME280;62448;-26.094;27.994;2022-08-19T03:05:14;84458.85;;;12.44;10.69
74090;BME280;62448;-26.094;27.994;2022-08-19T03:07:39;84459.92;;;11.26;10.80
74090;BME280;62448;-26.094;27.994;2022-08-19T03:10:06;84459.93;;;11.84;10.76
74090;BME280;62448;-26.094;27.994;2022-08-19T03:12:31;84458.91;;;11.84;10.76
74090;BME280;62448;-26.094;27.994;2022-08-19T03:14:56;84463.29;;;11.09;10.98
74090;BME280;62448;-26.094;27.994;2022-08-19T03:17:21;84463.68;;;12.07;10.66
74090;BME280;62448;-26.094;27.994;2022-08-19T03:19:47;84474.03;;;11.97;10.64
74090;BME280;62448;-26.094;27.994;2022-08-19T03:22:13;84472.06;;;11.72;10.74
74090;BME280;62448;-26.094;27.994;2022-08-19T03:24:39;84470.21;;;11.60;10.84
74090;BME280;62448;-26.094;27.994;2022-08-19T03:27:05;84472.12;;;11.37;10.80
74090;BME280;62448;-26.094;27.994;2022-08-19T03:29:31;84460.87;;;11.84;10.67
74090;BME280;62448;-26.094;27.994;2022-08-19T03:31:56;84456.63;;;11.47;10.74
74090;BME280;62448;-26.094;27.994;2022-08-19T03:34:23;84460.27;;;11.76;10.62
74090;BME280;62448;-26.094;27.994;2022-08-19T03:36:47;84461.26;;;11.88;10.59
74090;BME280;62448;-26.094;27.994;2022-08-19T03:39:13;84467.38;;;12.06;10.59
74090;BME280;62448;-26.094;27.994;2022-08-19T03:41:40;84468.91;;;11.70;10.74
74090;BME280;62448;-26.094;27.994;2022-08-19T03:44:04;84471.80;;;10.73;10.97
74090;BME280;62448;-26.094;27.994;2022-08-19T03:46:32;84469.90;;;11.58;10.72
74090;BME280;62448;-26.094;27.994;2022-08-19T03:48:56;84478.65;;;11.20;10.63
74090;BME280;62448;-26.094;27.994;2022-08-19T03:51:22;84471.32;;;11.78;10.56
74090;BME280;62448;-26.094;27.994;2022-08-19T03:53:46;84483.52;;;11.85;10.59
74090;BME280;62448;-26.094;27.994;2022-08-19T03:56:12;84477.70;;;11.53;10.66
74090;BME280;62448;-26.094;27.994;2022-08-19T03:58:37;84478.81;;;10.96;10.83
74090;BME280;62448;-26.094;27.994;2022-08-19T04:01:01;84483.43;;;11.20;10.79
74090;BME280;62448;-26.094;27.994;2022-08-19T04:03:27;84483.75;;;11.75;10.56
74090;BME280;62448;-26.094;27.994;2022-08-19T04:05:52;84483.39;;;11.78;10.58
74090;BME280;62448;-26.094;27.994;2022-08-19T04:08:17;84486.34;;;11.69;10.74
74090;BME280;62448;-26.094;27.994;2022-08-19T04:10:42;84485.33;;;11.86;10.91
74090;BME280;62448;-26.094;27.994;2022-08-19T04:13:08;84486.70;;;11.96;10.93
74090;BME280;62448;-26.094;27.994;2022-08-19T04:15:38;84498.89;;;12.06;10.98
74090;BME280;62448;-26.094;27.994;2022-08-19T04:18:00;84497.33;;;12.07;11.16
74090;BME280;62448;-26.094;27.994;2022-08-19T04:20:25;84508.34;;;11.40;11.25
74090;BME280;62448;-26.094;27.994;2022-08-19T04:22:51;84509.08;;;11.83;11.20
74090;BME280;62448;-26.094;27.994;2022-08-19T04:25:17;84509.32;;;11.27;11.31
74090;BME280;62448;-26.094;27.994;2022-08-19T04:27:43;84506.33;;;11.89;11.26
74090;BME280;62448;-26.094;27.994;2022-08-19T04:30:10;84509.07;;;11.91;11.32
74090;BME280;62448;-26.094;27.994;2022-08-19T04:32:34;84507.39;;;12.21;11.24
74090;BME280;62448;-26.094;27.994;2022-08-19T04:34:59;84518.93;;;11.75;11.43
74090;BME280;62448;-26.094;27.994;2022-08-19T04:37:25;84533.34;;;11.59;11.42
74090;BME280;62448;-26.094;27.994;2022-08-19T04:39:50;84538.44;;;11.29;11.75
74090;BME280;62448;-26.094;27.994;2022-08-19T04:42:16;84541.75;;;11.26;11.82
74090;BME280;62448;-26.094;27.994;2022-08-19T04:44:40;84546.44;;;10.86;11.81
74090;BME280;62448;-26.094;27.994;2022-08-19T04:47:05;84554.40;;;11.14;11.61
74090;BME280;62448;-26.094;27.994;2022-08-19T04:49:31;84558.84;;;11.08;11.58
74090;BME280;62448;-26.094;27.994;2022-08-19T04:51:56;84558.39;;;11.59;11.36
74090;BME280;62448;-26.094;27.994;2022-08-19T04:54:24;84566.64;;;11.70;11.27
74090;BME280;62448;-26.094;27.994;2022-08-19T04:56:48;84556.84;;;11.68;11.26
74090;BME280;62448;-26.094;27.994;2022-08-19T04:59:14;84555.30;;;11.66;11.23
74090;BME280;62448;-26.094;27.994;2022-08-19T05:01:39;84559.07;;;11.72;11.22
74090;BME280;62448;-26.094;27.994;2022-08-19T05:04:06;84563.99;;;10.98;11.40
74090;BME280;62448;-26.094;27.994;2022-08-19T05:06:31;84566.13;;;11.25;11.24
74090;BME280;62448;-26.094;27.994;2022-08-19T05:08:55;84571.82;;;11.59;11.18
74090;BME280;62448;-26.094;27.994;2022-08-19T05:11:23;84572.84;;;11.24;11.19
74090;BME280;62448;-26.094;27.994;2022-08-19T05:13:47;84573.39;;;11.52;11.09
74090;BME280;62448;-26.094;27.994;2022-08-19T05:16:12;84577.87;;;11.24;11.07
74090;BME280;62448;-26.094;27.994;2022-08-19T05:18:36;84579.10;;;11.23;11.17
74090;BME280;62448;-26.094;27.994;2022-08-19T05:21:07;84577.05;;;11.03;11.14
74090;BME280;62448;-26.094;27.994;2022-08-19T05:23:27;84582.07;;;11.49;11.04
74090;BME280;62448;-26.094;27.994;2022-08-19T05:25:53;84585.45;;;11.39;10.94
74090;BME280;62448;-26.094;27.994;2022-08-19T05:28:18;84586.43;;;11.39;10.98
74090;BME280;62448;-26.094;27.994;2022-08-19T05:30:44;84580.59;;;11.35;11.03
74090;BME280;62448;-26.094;27.994;2022-08-19T05:33:09;84584.26;;;11.21;11.03
74090;BME280;62448;-26.094;27.994;2022-08-19T05:35:35;84584.64;;;11.43;10.91
74090;BME280;62448;-26.094;27.994;2022-08-19T05:37:59;84593.75;;;11.88;11.01
74090;BME280;62448;-26.094;27.994;2022-08-19T05:40:25;84601.07;;;10.85;11.39
74090;BME280;62448;-26.094;27.994;2022-08-19T05:42:50;84594.76;;;10.70;11.53
74090;BME280;62448;-26.094;27.994;2022-08-19T05:45:16;84587.47;;;9.72;11.55
74090;BME280;62448;-26.094;27.994;2022-08-19T05:47:41;84590.95;;;10.81;11.12
74090;BME280;62448;-26.094;27.994;2022-08-19T05:50:07;84590.19;;;11.18;11.14
74090;BME280;62448;-26.094;27.994;2022-08-19T05:52:32;84602.48;;;10.97;11.13
74090;BME280;62448;-26.094;27.994;2022-08-19T05:54:57;84601.43;;;10.84;11.28
74090;BME280;62448;-26.094;27.994;2022-08-19T05:57:23;84608.11;;;11.49;11.10
74090;BME280;62448;-26.094;27.994;2022-08-19T05:59:47;84608.02;;;10.92;11.26
74090;BME280;62448;-26.094;27.994;2022-08-19T06:02:13;84617.41;;;11.49;11.04
74090;BME280;62448;-26.094;27.994;2022-08-19T06:04:38;84620.35;;;11.34;11.01
74090;BME280;62448;-26.094;27.994;2022-08-19T06:07:03;84623.10;;;11.45;11.03
74090;BME280;62448;-26.094;27.994;2022-08-19T06:09:29;84619.44;;;11.38;10.99
74090;BME280;62448;-26.094;27.994;2022-08-19T06:11:55;84623.32;;;11.39;10.98
74090;BME280;62448;-26.094;27.994;2022-08-19T06:14:21;84621.09;;;11.28;10.93
74090;BME280;62448;-26.094;27.994;2022-08-19T06:16:45;84622.87;;;11.61;10.93
74090;BME280;62448;-26.094;27.994;2022-08-19T06:19:12;84630.85;;;10.69;11.06
74090;BME280;62448;-26.094;27.994;2022-08-19T06:21:36;84633.10;;;10.97;10.95
74090;BME280;62448;-26.094;27.994;2022-08-19T06:24:00;84639.77;;;11.39;10.81
74090;BME280;62448;-26.094;27.994;2022-08-19T06:26:26;84644.85;;;11.59;10.86
74090;BME280;62448;-26.094;27.994;2022-08-19T06:28:52;84646.97;;;11.22;10.94
74090;BME280;62448;-26.094;27.994;2022-08-19T06:31:19;84654.75;;;11.14;11.03
74090;BME280;62448;-26.094;27.994;2022-08-19T06:33:43;84649.69;;;11.51;10.81
74090;BME280;62448;-26.094;27.994;2022-08-19T06:36:15;84654.31;;;11.51;10.81
74090;BME280;62448;-26.094;27.994;2022-08-19T06:38:33;84661.47;;;11.24;11.18
74090;BME280;62448;-26.094;27.994;2022-08-19T06:41:02;84663.55;;;10.58;11.45
74090;BME280;62448;-26.094;27.994;2022-08-19T06:43:24;84669.41;;;10.78;11.42
74090;BME280;62448;-26.094;27.994;2022-08-19T06:45:49;84667.29;;;10.88;11.29
74090;BME280;62448;-26.094;27.994;2022-08-19T06:48:15;84676.75;;;10.78;11.12
74090;BME280;62448;-26.094;27.994;2022-08-19T06:50:40;84678.53;;;11.47;11.08
74090;BME280;62448;-26.094;27.994;2022-08-19T06:53:05;84674.29;;;11.51;11.06
74090;BME280;62448;-26.094;27.994;2022-08-19T06:55:30;84676.11;;;11.21;11.17
74090;BME280;62448;-26.094;27.994;2022-08-19T06:57:56;84682.89;;;11.08;11.18
74090;BME280;62448;-26.094;27.994;2022-08-19T07:00:21;84685.46;;;11.07;11.29
74090;BME280;62448;-26.094;27.994;2022-08-19T07:02:46;84685.80;;;11.37;11.26
74090;BME280;62448;-26.094;27.994;2022-08-19T07:05:11;84692.26;;;11.31;11.17
74090;BME280;62448;-26.094;27.994;2022-08-19T07:07:37;84693.26;;;11.39;11.22
74090;BME280;62448;-26.094;27.994;2022-08-19T07:10:04;84699.37;;;11.33;11.21
74090;BME280;62448;-26.094;27.994;2022-08-19T07:12:29;84709.82;;;11.54;11.19
74090;BME280;62448;-26.094;27.994;2022-08-19T07:14:52;84717.62;;;11.76;11.08
74090;BME280;62448;-26.094;27.994;2022-08-19T07:17:18;84717.84;;;11.39;11.07
74090;BME280;62448;-26.094;27.994;2022-08-19T07:19:43;84722.44;;;11.26;11.13
74090;BME280;62448;-26.094;27.994;2022-08-19T07:22:09;84726.89;;;11.10;11.22
74090;BME280;62448;-26.094;27.994;2022-08-19T07:24:34;84737.30;;;11.47;11.12
74090;BME280;62448;-26.094;27.994;2022-08-19T07:27:02;84729.69;;;10.99;11.25
74090;BME280;62448;-26.094;27.994;2022-08-19T07:29:24;84737.20;;;11.12;10.99
74090;BME280;62448;-26.094;27.994;2022-08-19T07:31:51;84734.51;;;11.41;10.92
74090;BME280;62448;-26.094;27.994;2022-08-19T07:34:14;84732.71;;;11.62;10.94
74090;BME280;62448;-26.094;27.994;2022-08-19T07:36:41;84736.37;;;11.29;11.27
74090;BME280;62448;-26.094;27.994;2022-08-19T07:39:08;84732.95;;;10.73;11.65
74090;BME280;62448;-26.094;27.994;2022-08-19T07:41:31;84735.67;;;10.69;11.75
74090;BME280;62448;-26.094;27.994;2022-08-19T07:43:56;84741.26;;;10.29;12.04
74090;BME280;62448;-26.094;27.994;2022-08-19T07:46:21;84742.27;;;10.21;11.70
74090;BME280;62448;-26.094;27.994;2022-08-19T07:48:47;84745.35;;;10.96;11.49
74090;BME280;62448;-26.094;27.994;2022-08-19T07:51:16;84746.27;;;10.79;11.49
74090;BME280;62448;-26.094;27.994;2022-08-19T07:53:37;84746.38;;;10.88;11.32
74090;BME280;62448;-26.094;27.994;2022-08-19T07:56:03;84744.48;;;10.36;11.40
74090;BME280;62448;-26.094;27.994;2022-08-19T07:58:27;84739.08;;;10.06;11.49
74090;BME280;62448;-26.094;27.994;2022-08-19T08:00:52;84738.13;;;10.88;11.23
74090;BME280;62448;-26.094;27.994;2022-08-19T08:03:19;84740.11;;;11.02;11.18
74090;BME280;62448;-26.094;27.994;2022-08-19T08:05:43;84749.10;;;10.45;11.26
74090;BME280;62448;-26.094;27.994;2022-08-19T08:08:10;84743.14;;;10.85;11.24
74090;BME280;62448;-26.094;27.994;2022-08-19T08:10:33;84732.15;;;10.13;11.26
74090;BME280;62448;-26.094;27.994;2022-08-19T08:12:59;84734.37;;;10.07;11.32
74090;BME280;62448;-26.094;27.994;2022-08-19T08:15:24;84738.22;;;10.38;11.22
74090;BME280;62448;-26.094;27.994;2022-08-19T08:17:49;84738.83;;;10.43;11.28
74090;BME280;62448;-26.094;27.994;2022-08-19T08:20:15;84743.32;;;10.55;11.16
74090;BME280;62448;-26.094;27.994;2022-08-19T08:22:44;84737.17;;;10.35;11.16
74090;BME280;62448;-26.094;27.994;2022-08-19T08:25:08;84728.30;;;10.32;11.13
74090;BME280;62448;-26.094;27.994;2022-08-19T08:27:30;84728.84;;;10.05;11.19
74090;BME280;62448;-26.094;27.994;2022-08-19T08:29:56;84729.70;;;10.36;11.21
74090;BME280;62448;-26.094;27.994;2022-08-19T08:32:21;84736.87;;;10.42;11.14
74090;BME280;62448;-26.094;27.994;2022-08-19T08:34:46;84741.06;;;10.81;11.27
74090;BME280;62448;-26.094;27.994;2022-08-19T08:37:12;84739.40;;;9.99;11.60
74090;BME280;62448;-26.094;27.994;2022-08-19T08:39:37;84738.50;;;9.94;11.67
74090;BME280;62448;-26.094;27.994;2022-08-19T08:42:08;84741.16;;;10.01;11.71
74090;BME280;62448;-26.094;27.994;2022-08-19T08:44:37;84735.52;;;9.43;11.75
74090;BME280;62448;-26.094;27.994;2022-08-19T08:46:57;84731.99;;;9.45;11.64
74090;BME280;62448;-26.094;27.994;2022-08-19T08:49:26;84732.11;;;10.18;11.31
74090;BME280;62448;-26.094;27.994;2022-08-19T08:51:46;84726.97;;;9.82;11.17
74090;BME280;62448;-26.094;27.994;2022-08-19T08:54:12;84727.55;;;9.98;11.24
74090;BME280;62448;-26.094;27.994;2022-08-19T08:56:34;84726.97;;;10.02;11.34
74090;BME280;62448;-26.094;27.994;2022-08-19T08:59:03;84728.88;;;10.05;11.47
74090;BME280;62448;-26.094;27.994;2022-08-19T09:01:24;84726.55;;;10.48;11.37
74090;BME280;62448;-26.094;27.994;2022-08-19T09:03:50;84732.66;;;10.08;11.51
74090;BME280;62448;-26.094;27.994;2022-08-19T09:06:29;84732.37;;;10.21;11.59
74090;BME280;62448;-26.094;27.994;2022-08-19T09:08:48;84735.16;;;10.24;11.66
74090;BME280;62448;-26.094;27.994;2022-08-19T09:11:10;84735.93;;;10.27;11.57
74090;BME280;62448;-26.094;27.994;2022-08-19T09:13:41;84729.09;;;10.19;11.55
74090;BME280;62448;-26.094;27.994;2022-08-19T09:16:00;84726.86;;;10.25;11.72
74090;BME280;62448;-26.094;27.994;2022-08-19T09:18:22;84726.07;;;10.40;11.70
74090;BME280;62448;-26.094;27.994;2022-08-19T09:20:47;84723.56;;;10.59;11.73
74090;BME280;62448;-26.094;27.994;2022-08-19T09:23:12;84728.08;;;10.52;11.63
74090;BME280;62448;-26.094;27.994;2022-08-19T09:25:37;84743.26;;;10.44;11.70
74090;BME280;62448;-26.094;27.994;2022-08-19T09:28:03;84734.18;;;10.21;11.75
74090;BME280;62448;-26.094;27.994;2022-08-19T09:30:30;84740.54;;;10.49;11.75
74090;BME280;62448;-26.094;27.994;2022-08-19T09:32:54;84724.84;;;10.43;11.77
74090;BME280;62448;-26.094;27.994;2022-08-19T09:35:20;84726.15;;;10.70;11.91
74090;BME280;62448;-26.094;27.994;2022-08-19T09:37:43;84724.21;;;10.42;12.28
74090;BME280;62448;-26.094;27.994;2022-08-19T09:40:10;84713.49;;;10.00;12.33
74090;BME280;62448;-26.094;27.994;2022-08-19T09:42:34;84719.83;;;10.32;12.28
74090;BME280;62448;-26.094;27.994;2022-08-19T09:45:00;84722.12;;;9.94;12.43
74090;BME280;62448;-26.094;27.994;2022-08-19T09:47:25;84715.30;;;9.56;12.03
74090;BME280;62448;-26.094;27.994;2022-08-19T09:49:50;84716.89;;;9.83;11.75
74090;BME280;62448;-26.094;27.994;2022-08-19T09:52:15;84716.50;;;10.24;11.47
74090;BME280;62448;-26.094;27.994;2022-08-19T09:54:41;84713.60;;;10.49;11.29
74090;BME280;62448;-26.094;27.994;2022-08-19T09:57:06;84718.47;;;10.33;11.19
74090;BME280;62448;-26.094;27.994;2022-08-19T09:59:31;84710.54;;;10.72;10.98
74090;BME280;62448;-26.094;27.994;2022-08-19T10:01:57;84709.74;;;10.58;10.94
74090;BME280;62448;-26.094;27.994;2022-08-19T10:04:22;84712.55;;;10.35;10.88
74090;BME280;62448;-26.094;27.994;2022-08-19T10:06:48;84707.37;;;10.52;10.89
74090;BME280;62448;-26.094;27.994;2022-08-19T10:09:13;84705.03;;;10.77;10.91
74090;BME280;62448;-26.094;27.994;2022-08-19T10:11:40;84698.96;;;10.74;10.87
74090;BME280;62448;-26.094;27.994;2022-08-19T10:14:05;84697.07;;;10.91;10.90
74090;BME280;62448;-26.094;27.994;2022-08-19T10:16:28;84698.35;;;10.51;10.96
74090;BME280;62448;-26.094;27.994;2022-08-19T10:18:54;84704.02;;;10.92;10.93
74090;BME280;62448;-26.094;27.994;2022-08-19T10:21:20;84708.64;;;10.42;11.00
74090;BME280;62448;-26.094;27.994;2022-08-19T10:23:47;84704.81;;;11.26;10.80
74090;BME280;62448;-26.094;27.994;2022-08-19T10:26:09;84707.05;;;11.16;10.86
74090;BME280;62448;-26.094;27.994;2022-08-19T10:28:35;84705.36;;;10.79;10.99
74090;BME280;62448;-26.094;27.994;2022-08-19T10:31:04;84699.09;;;11.15;10.94
74090;BME280;62448;-26.094;27.994;2022-08-19T10:33:25;84693.18;;;11.40;11.10
74090;BME280;62448;-26.094;27.994;2022-08-19T10:35:59;84699.44;;;10.71;11.40
74090;BME280;62448;-26.094;27.994;2022-08-19T10:38:15;84712.87;;;10.35;11.64
74090;BME280;62448;-26.094;27.994;2022-08-19T10:40:40;84708.36;;;10.18;11.73
74090;BME280;62448;-26.094;27.994;2022-08-19T10:43:06;84712.61;;;10.31;11.78
74090;BME280;62448;-26.094;27.994;2022-08-19T10:45:53;84698.74;;;11.33;11.79
74090;BME280;62448;-26.094;27.994;2022-08-19T10:48:16;84702.41;;;10.79;11.52
74090;BME280;62448;-26.094;27.994;2022-08-19T10:50:41;84690.77;;;10.97;11.20
74090;BME280;62448;-26.094;27.994;2022-08-19T10:53:08;84698.03;;;10.71;11.01
74090;BME280;62448;-26.094;27.994;2022-08-19T10:55:31;84693.33;;;10.59;10.92
74090;BME280;62448;-26.094;27.994;2022-08-19T10:57:57;84694.05;;;11.09;10.91
74090;BME280;62448;-26.094;27.994;2022-08-19T11:00:23;84703.84;;;10.97;10.98
74090;BME280;62448;-26.094;27.994;2022-08-19T11:02:47;84704.34;;;11.05;11.05
74090;BME280;62448;-26.094;27.994;2022-08-19T11:05:13;84709.81;;;11.08;10.97
74090;BME280;62448;-26.094;27.994;2022-08-19T11:07:38;84702.76;;;11.64;10.94
74090;BME280;62448;-26.094;27.994;2022-08-19T11:10:03;84707.00;;;11.39;10.93
74090;BME280;62448;-26.094;27.994;2022-08-19T11:12:28;84697.26;;;11.40;10.91
74090;BME280;62448;-26.094;27.994;2022-08-19T11:14:53;84688.05;;;11.04;10.95
74090;BME280;62448;-26.094;27.994;2022-08-19T11:17:18;84704.91;;;11.45;11.02
74090;BME280;62448;-26.094;27.994;2022-08-19T11:19:44;84697.72;;;11.56;10.92
74090;BME280;62448;-26.094;27.994;2022-08-19T11:22:10;84699.36;;;11.56;10.96
74090;BME280;62448;-26.094;27.994;2022-08-19T11:24:34;84693.73;;;11.42;10.96
74090;BME280;62448;-26.094;27.994;2022-08-19T11:27:04;84688.99;;;11.39;11.12
74090;BME280;62448;-26.094;27.994;2022-08-19T11:29:25;84688.72;;;11.84;10.45
74090;BME280;62448;-26.094;27.994;2022-08-19T11:31:50;84689.45;;;11.78;10.84
74090;BME280;62448;-26.094;27.994;2022-08-19T11:34:19;84690.04;;;10.87;11.18
74090;BME280;62448;-26.094;27.994;2022-08-19T11:36:42;84695.12;;;10.93;11.52
74090;BME280;62448;-26.094;27.994;2022-08-19T11:39:07;84692.22;;;10.83;11.47
74090;BME280;62448;-26.094;27.994;2022-08-19T11:41:32;84682.10;;;10.88;11.35
74090;BME280;62448;-26.094;27.994;2022-08-19T11:43:57;84687.49;;;11.01;11.36
74090;BME280;62448;-26.094;27.994;2022-08-19T11:46:23;84683.23;;;10.24;11.38
74090;BME280;62448;-26.094;27.994;2022-08-19T11:48:47;84678.61;;;11.28;11.00
74090;BME280;62448;-26.094;27.994;2022-08-19T11:51:15;84682.49;;;11.20;11.02
74090;BME280;62448;-26.094;27.994;2022-08-19T11:53:38;84690.32;;;11.37;10.81
74090;BME280;62448;-26.094;27.994;2022-08-19T11:56:04;84671.93;;;11.63;10.47
74090;BME280;62448;-26.094;27.994;2022-08-19T11:58:29;84676.97;;;11.91;10.58
74090;BME280;62448;-26.094;27.994;2022-08-19T12:00:54;84678.27;;;11.07;10.50
74090;BME280;62448;-26.094;27.994;2022-08-19T12:03:19;84672.27;;;11.52;10.43
74090;BME280;62448;-26.094;27.994;2022-08-19T12:05:44;84681.52;;;11.90;10.29
74090;BME280;62448;-26.094;27.994;2022-08-19T12:08:10;84668.90;;;11.45;10.25
74090;BME280;62448;-26.094;27.994;2022-08-19T12:10:35;84663.49;;;11.72;10.12
74090;BME280;62448;-26.094;27.994;2022-08-19T12:13:00;84663.31;;;11.85;10.21
74090;BME280;62448;-26.094;27.994;2022-08-19T12:15:25;84664.05;;;11.85;10.08
74090;BME280;62448;-26.094;27.994;2022-08-19T12:17:50;84670.27;;;11.70;10.06
74090;BME280;62448;-26.094;27.994;2022-08-19T12:20:15;84670.58;;;11.81;9.98
74090;BME280;62448;-26.094;27.994;2022-08-19T12:22:41;84681.26;;;10.99;10.06
74090;BME280;62448;-26.094;27.994;2022-08-19T12:25:07;84680.94;;;11.38;9.89
74090;BME280;62448;-26.094;27.994;2022-08-19T12:27:32;84675.73;;;11.66;9.73
74090;BME280;62448;-26.094;27.994;2022-08-19T12:29:57;84677.28;;;11.90;9.80